Airfield :
LOGIN :

Register | Disclaimer

   EN    FR    IT 

 










Legend :    VFR   Marginal VFR   IFR   Intensive IFR   Very Intensive IFR
Visi :
Ceiling :
>= 8 km
>= 3000ft
5 to 8 km
1000 to 3000 ft
1500m to 5 km
500 to 1000 ft
800 to 1500m
200 to 500 ft
< 800m
< 200 ft
Symbols :   Thunderstorms  Fog  Heavy snow  Heavy precipitations  Wind > 20 kt
SIGMETs :     Misc.  Thunderstorms  Icing  Turbulence  Mountain Waves  Volcanic Ashes






- Airport Elevation : 466 ft


LHPA - Pápa

CURRENT METAR :
  • 020815Z 35006KT 310V030 9999 FEW020 BKN083 23/18 Q1012 NOSIG RMK BLU

EXPIRED METARs :
  • 020745Z 02002KT 9999 FEW020 BKN083 22/20 Q1012 NOSIG RMK BLU
  • 020715Z 14002KT CAVOK 21/20 Q1011 NOSIG RMK BLU
  • 020645Z 09002KT 9999 FEW006 BKN083 BKN200 21/19 Q1011 NOSIG RMK BLU
  • 020615Z 00000KT 9999 FEW003 BKN083 BKN200 21/19 Q1011 NOSIG RMK BLU
  • 020545Z 00000KT 9999 FEW003 BKN083 BKN200 20/19 Q1011 NOSIG RMK BLU

TAF TAF LHPA
Valid from the 02 at 06:00 until the 03 at 06:00 UTC


020515Z 0206/0306 33006KT CAVOK
BECMG 0211/0213 9999 SCT050TCU
PROB40
TEMPO 0214/0220 8000 SHRA TSRA SCT040CB BKN080



MET'MAP, your aeronautical weather chart ! - Copyright ORBIFLY December 2007 - Disclaimer

ORBIFLY MET'MAP TEAM :

Programming & Development : Alexandra Zaïnal
Concept & original design : Baudouin d'Aumeries
Assistance for programming : Marc-Olivier Méhu
Technical & hardware support : Manuel Goepfert

Contact : metmap@orbifly.com




SOURCES & CREDITS :

   NOAA